Time;durP1;ratioP1;P1;durP2;ratioP2;P2;SDS_P1;SDS_P2;PMS_P1;PMS_P2;Temp;Humidity;BMP_temperature;BMP_pressure;BME280_temperature;BME280_humidity;BME280_pressure;Samples;Min_cycle;Max_cycle;Signal;HPM_P1;HPM_P2
2022/01/20 00:01:43;;;;;;;31.92;13.07;;;;;;;4.40;77.42;100636.09;4983367;28;20029;-87
2022/01/20 00:04:19;;;;;;;36.03;13.60;;;;;;;4.43;77.48;100641.22;4992026;28;20038;-89
2022/01/20 00:26:45;;;;;;;25.95;10.38;;;;;;;4.37;77.45;100642.34;4981038;28;20049;-87
2022/01/20 00:29:20;;;;;;;31.50;11.75;;;;;;;4.41;77.36;100651.81;5008137;28;20065;-87
2022/01/20 00:32:03;;;;;;;21.15;9.77;;;;;;;4.40;77.37;100651.88;4971042;28;20054;-87
2022/01/20 00:34:52;;;;;;;26.45;10.38;;;;;;;4.38;77.45;100659.00;4945472;28;20104;-86
2022/01/20 00:37:18;;;;;;;23.45;9.35;;;;;;;4.38;77.30;100659.84;4984232;28;20042;-86
2022/01/20 00:39:45;;;;;;;22.70;9.80;;;;;;;4.41;77.03;100662.31;5011437;28;20076;-87
2022/01/20 00:42:15;;;;;;;23.88;8.95;;;;;;;4.43;77.24;100671.00;5008539;28;20085;-87
2022/01/20 00:44:43;;;;;;;20.27;8.43;;;;;;;4.43;77.28;100663.13;5001089;28;20050;-86
2022/01/20 00:47:10;;;;;;;19.98;9.38;;;;;;;4.44;77.29;100666.59;4987074;28;20058;-86
2022/01/20 00:49:37;;;;;;;19.10;7.03;;;;;;;4.41;77.26;100669.38;4988505;28;20047;-87
2022/01/20 00:52:04;;;;;;;19.17;8.05;;;;;;;4.41;77.41;100664.97;4975507;28;20046;-86
2022/01/20 00:54:31;;;;;;;17.02;8.23;;;;;;;4.43;77.46;100671.00;5009142;28;20053;-87
2022/01/20 00:56:59;;;;;;;17.30;7.30;;;;;;;4.43;77.69;100664.91;4990456;28;20109;-87
2022/01/20 00:59:29;;;;;;;15.77;7.43;;;;;;;4.44;77.19;100670.06;4937903;28;20441;-86
2022/01/20 01:02:01;;;;;;;19.50;8.73;;;;;;;4.44;77.45;100675.31;4970513;28;20387;-88
2022/01/20 01:04:28;;;;;;;18.35;7.85;;;;;;;4.45;77.03;100674.41;5005417;28;20493;-87
2022/01/20 01:14:06;;;;;;;17.20;7.72;;;;;;;4.38;77.21;100672.16;4980022;28;20061;-87
2022/01/20 01:22:20;;;;;;;18.63;9.50;;;;;;;4.42;77.12;100681.59;4970902;28;20049;-86
2022/01/20 01:24:51;;;;;;;22.77;10.32;;;;;;;4.42;77.43;100678.94;4926651;28;20061;-89
2022/01/20 01:27:19;;;;;;;22.13;9.95;;;;;;;4.43;77.21;100676.25;4977775;28;20049;-87
2022/01/20 01:30:09;;;;;;;21.08;9.48;;;;;;;4.45;77.29;100673.53;4977623;28;20501;-87
2022/01/20 01:32:48;;;;;;;23.95;9.88;;;;;;;4.44;77.32;100677.09;4921560;28;20049;-87
2022/01/20 01:35:17;;;;;;;22.05;10.57;;;;;;;4.45;77.38;100663.00;4963504;28;20049;-88
2022/01/20 01:40:32;;;;;;;22.27;11.07;;;;;;;4.46;77.33;100670.84;4931165;28;20094;-88
2022/01/20 01:43:03;;;;;;;23.25;10.98;;;;;;;4.45;77.55;100676.16;4951855;28;20072;-87
2022/01/20 01:45:32;;;;;;;23.95;10.60;;;;;;;4.45;77.83;100681.41;4983907;28;20069;-87
2022/01/20 01:48:00;;;;;;;23.40;10.40;;;;;;;4.46;77.60;100681.38;4995696;28;20383;-87
2022/01/20 01:50:28;;;;;;;20.88;9.32;;;;;;;4.46;77.68;100680.50;4957889;28;20043;-87
2022/01/20 01:52:56;;;;;;;22.38;9.95;;;;;;;4.45;77.74;100670.91;4975444;28;20042;-87
2022/01/20 01:55:24;;;;;;;16.52;8.57;;;;;;;4.47;77.93;100672.53;4954000;28;20109;-88
2022/01/20 01:57:51;;;;;;;23.65;10.75;;;;;;;4.48;77.84;100665.53;4954429;28;20046;-86
2022/01/20 02:00:21;;;;;;;22.95;10.98;;;;;;;4.48;77.84;100662.88;4961943;28;20129;-88
2022/01/20 02:21:06;;;;;;;23.13;10.32;;;;;;;4.44;78.10;100669.22;4939665;28;20058;-86
2022/01/20 02:23:34;;;;;;;21.35;10.05;;;;;;;4.47;78.00;100667.28;4956428;28;20486;-87
2022/01/20 02:26:03;;;;;;;25.25;10.40;;;;;;;4.47;78.03;100675.16;4951763;28;20054;-86
2022/01/20 02:28:30;;;;;;;16.67;8.65;;;;;;;4.47;78.26;100677.78;4953099;28;20136;-87
2022/01/20 02:30:57;;;;;;;16.40;8.63;;;;;;;4.49;78.14;100680.34;4969667;28;20455;-88
2022/01/20 02:33:27;;;;;;;21.48;9.93;;;;;;;4.48;78.37;100674.25;4965163;28;20058;-85
2022/01/20 02:36:05;;;;;;;17.55;7.90;;;;;;;4.49;78.01;100669.84;4966078;28;20133;-87
2022/01/20 02:38:48;;;;;;;21.88;9.68;;;;;;;4.49;78.20;100675.09;4959284;28;20096;-87
2022/01/20 02:46:45;;;;;;;17.83;9.30;;;;;;;4.48;78.18;100676.88;5005814;28;20042;-87
2022/01/20 02:49:18;;;;;;;17.67;8.63;;;;;;;4.49;78.28;100675.94;4953345;28;20046;-87
2022/01/20 02:51:53;;;;;;;17.30;8.07;;;;;;;4.45;78.10;100673.53;4960214;28;20501;-87
2022/01/20 02:58:46;;;;;;;18.70;9.23;;;;;;;4.45;78.33;100671.78;4958715;28;20037;-87
2022/01/20 03:01:13;;;;;;;19.10;8.25;;;;;;;4.46;78.17;100676.09;4961368;28;20042;-87
2022/01/20 03:03:40;;;;;;;10.55;5.63;;;;;;;4.48;78.14;100673.41;4975004;28;20065;-82
2022/01/20 03:06:08;;;;;;;18.00;7.72;;;;;;;4.49;78.21;100672.47;5002585;28;20073;-83
2022/01/20 03:08:35;;;;;;;14.98;7.72;;;;;;;4.51;78.23;100665.34;4970072;28;20049;-82
2022/01/20 03:11:02;;;;;;;20.05;8.15;;;;;;;4.52;78.15;100664.41;4966598;28;20046;-83
2022/01/20 03:13:28;;;;;;;17.48;7.72;;;;;;;4.53;78.12;100668.78;4984589;28;20046;-83
2022/01/20 03:15:55;;;;;;;19.05;9.07;;;;;;;4.51;78.27;100663.56;4971167;28;20046;-83
2022/01/20 03:18:22;;;;;;;13.23;7.35;;;;;;;4.52;78.26;100659.16;4998283;28;20050;-82
2022/01/20 03:20:49;;;;;;;15.82;8.43;;;;;;;4.52;78.39;100664.41;4972498;28;20489;-82
2022/01/20 03:23:16;;;;;;;14.30;7.38;;;;;;;4.53;78.50;100666.13;4976117;28;20042;-82
2022/01/20 03:25:42;;;;;;;16.77;8.63;;;;;;;4.54;78.61;100667.81;4984357;28;20077;-82
2022/01/20 03:28:09;;;;;;;19.58;9.30;;;;;;;4.51;78.61;100658.31;4939381;28;20050;-82
2022/01/20 03:30:36;;;;;;;19.92;9.43;;;;;;;4.53;78.21;100659.09;4964031;28;20097;-82
2022/01/20 03:33:03;;;;;;;16.48;8.02;;;;;;;4.53;78.36;100655.63;4967198;28;20047;-82
2022/01/20 03:35:32;;;;;;;19.15;9.23;;;;;;;4.53;78.30;100664.34;4972816;28;20130;-82
2022/01/20 03:38:19;;;;;;;17.30;8.55;;;;;;;4.53;78.27;100661.72;4956485;28;20100;-82
2022/01/20 03:40:46;;;;;;;17.98;8.05;;;;;;;4.54;78.25;100663.41;4982247;28;20061;-82
2022/01/20 03:43:13;;;;;;;15.40;8.18;;;;;;;4.54;78.12;100667.81;4975222;28;20054;-82
2022/01/20 03:45:42;;;;;;;17.25;7.50;;;;;;;4.53;78.17;100651.19;4984817;28;20171;-82
2022/01/20 03:48:11;;;;;;;17.40;8.55;;;;;;;4.53;78.43;100659.09;4950156;28;20051;-82
2022/01/20 03:53:32;;;;;;;12.75;6.65;;;;;;;4.52;78.49;100665.25;4925711;28;20055;-82
2022/01/20 03:55:59;;;;;;;;;;;;;;;4.35;78.73;100678.38;4991636;28;20053;-82
2022/01/20 03:58:29;;;;;;;16.58;9.93;;;;;;;4.48;78.67;100671.63;5001434;28;19922;-82
2022/01/20 04:00:55;;;;;;;18.27;8.77;;;;;;;4.50;78.39;100674.16;4968374;28;20049;-82
2022/01/20 04:03:41;;;;;;;21.52;9.23;;;;;;;4.50;78.44;100676.78;4950878;28;20049;-82
2022/01/20 04:06:20;;;;;;;18.08;8.02;;;;;;;4.50;78.58;100676.78;4992038;28;20077;-82
2022/01/20 04:08:47;;;;;;;16.83;8.10;;;;;;;4.50;78.45;100677.66;4966435;28;20138;-82
2022/01/20 04:11:26;;;;;;;16.83;7.93;;;;;;;4.46;78.35;100681.38;4969629;28;20469;-82
2022/01/20 04:13:54;;;;;;;35.08;13.93;;;;;;;4.52;78.34;100673.16;4984792;28;20054;-82
2022/01/20 04:16:37;;;;;;;37.35;14.80;;;;;;;4.47;78.53;100669.91;4959439;28;20108;-82
2022/01/20 04:19:07;;;;;;;20.52;8.48;;;;;;;4.51;78.62;100674.09;4968318;28;20130;-82
2022/01/20 04:21:36;;;;;;;18.13;8.85;;;;;;;4.53;78.35;100663.50;4969689;28;20596;-82
2022/01/20 04:24:04;;;;;;;20.67;10.85;;;;;;;4.54;78.34;100670.47;4997409;28;20431;-82
2022/01/20 04:26:35;;;;;;;18.98;9.27;;;;;;;4.55;78.34;100667.75;4958047;28;20501;-82
2022/01/20 04:29:03;;;;;;;18.85;8.88;;;;;;;4.54;78.42;100671.31;4968642;28;20085;-82
2022/01/20 04:31:33;;;;;;;17.23;9.32;;;;;;;4.53;78.54;100679.28;4963188;28;20050;-82
2022/01/20 04:34:00;;;;;;;17.92;9.70;;;;;;;4.54;78.54;100670.47;5001626;28;20121;-82
2022/01/20 04:36:34;;;;;;;21.25;9.32;;;;;;;4.55;78.32;100674.78;4967840;28;20061;-82
2022/01/20 04:39:06;;;;;;;18.83;8.80;;;;;;;4.53;78.44;100668.78;4974034;28;20438;-82
2022/01/20 04:41:34;;;;;;;17.20;7.78;;;;;;;4.53;78.36;100666.13;4934202;28;20390;-82
2022/01/20 04:44:07;;;;;;;17.55;9.38;;;;;;;4.53;78.78;100676.66;5000750;28;20050;-82
2022/01/20 04:57:03;;;;;;;17.38;9.18;;;;;;;4.52;78.62;100688.94;4948235;28;20573;-82
2022/01/20 04:59:30;;;;;;;21.00;10.55;;;;;;;4.52;78.75;100673.16;4970836;28;20101;-82
2022/01/20 05:01:57;;;;;;;20.73;10.45;;;;;;;4.52;78.63;100674.94;4967985;28;20050;-82
2022/01/20 05:04:36;;;;;;;20.30;10.65;;;;;;;4.53;78.77;100668.78;4957137;28;20055;-82
2022/01/20 05:07:19;;;;;;;26.42;12.52;;;;;;;4.53;78.69;100664.34;4965496;28;20050;-82
2022/01/20 05:09:47;;;;;;;25.33;11.52;;;;;;;4.52;78.55;100662.63;4966088;28;20039;-82
2022/01/20 05:12:18;;;;;;;25.80;12.20;;;;;;;4.56;78.31;100663.34;4974149;28;20414;-82
2022/01/20 05:14:45;;;;;;;22.45;11.13;;;;;;;4.48;78.72;100658.47;4991247;28;20084;-82
2022/01/20 05:17:12;;;;;;;24.20;11.32;;;;;;;4.49;78.62;100662.78;4935263;28;20054;-82
2022/01/20 05:19:40;;;;;;;21.55;11.15;;;;;;;4.48;79.04;100658.47;4975722;28;20054;-82
2022/01/20 05:22:06;;;;;;;22.30;10.40;;;;;;;4.48;78.58;100655.00;4969218;28;20052;-82
2022/01/20 05:24:46;;;;;;;18.00;9.45;;;;;;;4.50;78.47;100672.41;4982587;28;20437;-82
2022/01/20 05:27:14;;;;;;;18.73;9.27;;;;;;;4.50;78.79;100690.81;4977214;28;20479;-82
2022/01/20 05:29:41;;;;;;;21.95;9.30;;;;;;;4.51;78.86;100675.88;4990312;28;20053;-82
2022/01/20 05:32:10;;;;;;;25.63;10.27;;;;;;;4.50;78.60;100677.66;4957142;28;20694;-81
2022/01/20 05:34:36;;;;;;;20.58;9.20;;;;;;;4.50;78.57;100675.03;4972425;28;20077;-82
2022/01/20 05:37:04;;;;;;;21.75;9.85;;;;;;;4.50;78.77;100677.66;4987313;28;20051;-82
2022/01/20 05:39:31;;;;;;;21.05;10.50;;;;;;;4.50;78.88;100682.03;4981634;28;20054;-82
2022/01/20 05:41:58;;;;;;;19.05;10.13;;;;;;;4.51;78.88;100675.88;4956235;28;20053;-82
2022/01/20 05:44:53;;;;;;;19.05;9.30;;;;;;;4.50;78.73;100658.38;4919919;28;20050;-83
2022/01/20 05:47:27;;;;;;;22.50;10.15;;;;;;;4.50;78.77;100651.38;4975967;28;21432;-83
2022/01/20 05:50:20;;;;;;;15.43;8.48;;;;;;;4.49;78.78;100660.16;4948605;28;20053;-83
2022/01/20 05:52:48;;;;;;;20.50;9.90;;;;;;;4.48;78.81;100669.00;4994924;28;20062;-82
2022/01/20 05:55:17;;;;;;;16.85;8.55;;;;;;;4.49;78.85;100668.06;4943732;28;20494;-83
2022/01/20 05:57:47;;;;;;;18.45;8.80;;;;;;;4.48;78.73;100670.78;4975874;28;20118;-84
2022/01/20 06:00:20;;;;;;;24.02;8.88;;;;;;;4.48;78.57;100671.63;4970991;28;20069;-83
2022/01/20 06:05:38;;;;;;;12.65;6.18;;;;;;;4.47;78.53;100664.66;4934743;28;20050;-83
2022/01/20 06:08:07;;;;;;;25.50;10.02;;;;;;;4.48;78.70;100668.16;4945148;28;20049;-85
2022/01/20 06:10:34;;;;;;;21.08;9.25;;;;;;;4.47;78.62;100666.44;4972774;28;20054;-83
2022/01/20 06:13:12;;;;;;;22.08;9.68;;;;;;;4.46;78.72;100673.47;4936494;28;20051;-82
2022/01/20 06:15:39;;;;;;;23.17;9.35;;;;;;;4.46;78.55;100680.50;4992718;28;20068;-82
2022/01/20 06:18:08;;;;;;;20.48;8.95;;;;;;;4.47;78.48;100672.53;4984366;28;20050;-83
2022/01/20 06:20:40;;;;;;;16.05;7.90;;;;;;;4.47;78.91;100664.66;5007699;28;20042;-83
2022/01/20 06:23:09;;;;;;;20.67;8.32;;;;;;;4.48;78.57;100673.41;4942682;28;20086;-83
2022/01/20 06:25:37;;;;;;;18.40;9.00;;;;;;;4.48;78.88;100676.03;4987315;28;20046;-83
2022/01/20 06:28:05;;;;;;;22.98;9.15;;;;;;;4.47;78.52;100669.91;4986255;28;20129;-82
2022/01/20 06:30:32;;;;;;;23.17;9.70;;;;;;;4.45;79.08;100660.38;4948171;28;20043;-82
2022/01/20 06:33:02;;;;;;;21.77;9.18;;;;;;;4.44;78.83;100662.16;4973483;28;20072;-83
2022/01/20 06:35:38;;;;;;;24.65;9.43;;;;;;;4.45;78.71;100663.00;4974381;28;20396;-81
2022/01/20 06:38:05;;;;;;;22.52;9.85;;;;;;;4.47;78.84;100679.56;4983263;28;20049;-82
2022/01/20 06:40:36;;;;;;;26.33;9.85;;;;;;;4.44;78.72;100683.22;5012953;28;20517;-83
2022/01/20 06:43:03;;;;;;;24.00;9.70;;;;;;;4.47;78.89;100676.94;4948563;28;20050;-81
2022/01/20 06:45:30;;;;;;;20.15;9.95;;;;;;;4.46;79.01;100668.22;4977628;28;20042;-82
2022/01/20 06:48:03;;;;;;;22.25;9.05;;;;;;;4.46;78.86;100655.06;4992813;28;20054;-82
2022/01/20 06:50:32;;;;;;;23.00;9.95;;;;;;;4.48;78.73;100665.53;4969925;28;20061;-81
2022/01/20 06:52:59;;;;;;;23.45;10.88;;;;;;;4.45;79.05;100669.16;4985640;28;21582;-81
2022/01/20 06:55:27;;;;;;;27.25;11.55;;;;;;;4.46;78.80;100659.47;4962420;28;20042;-81
2022/01/20 06:57:53;;;;;;;26.58;11.38;;;;;;;4.45;78.86;100669.16;4971852;28;20042;-80
2022/01/20 07:00:22;;;;;;;25.55;11.82;;;;;;;4.45;78.59;100657.75;4962193;28;20046;-80
2022/01/20 07:02:50;;;;;;;21.77;10.27;;;;;;;4.46;78.58;100665.59;4958307;28;20273;-81
2022/01/20 07:05:18;;;;;;;26.27;11.07;;;;;;;4.48;78.68;100668.16;4957194;28;20054;-82
2022/01/20 07:07:46;;;;;;;23.77;10.65;;;;;;;4.49;78.74;100686.47;4950121;28;20065;-81
2022/01/20 07:10:23;;;;;;;23.00;10.18;;;;;;;4.47;78.73;100695.34;4985557;28;20493;-81
2022/01/20 07:12:53;;;;;;;23.67;11.43;;;;;;;4.46;78.46;100696.28;4961347;28;20050;-82
2022/01/20 07:15:21;;;;;;;18.50;9.55;;;;;;;4.45;78.76;100698.09;4962322;28;20055;-82
2022/01/20 07:17:50;;;;;;;23.00;10.10;;;;;;;4.46;78.52;100705.03;4974881;28;20431;-82
2022/01/20 07:20:18;;;;;;;24.83;10.05;;;;;;;4.45;78.87;100703.34;4999501;28;20056;-82
2022/01/20 07:23:09;;;;;;;19.90;10.18;;;;;;;4.45;78.74;100715.59;4976390;28;20043;-83
2022/01/20 07:25:49;;;;;;;28.20;11.77;;;;;;;4.46;78.65;100709.44;4947323;28;20125;-82
2022/01/20 07:28:17;;;;;;;24.40;11.15;;;;;;;4.45;78.56;100705.97;4988708;28;20155;-81
2022/01/20 07:30:46;;;;;;;32.78;12.73;;;;;;;4.45;78.73;100711.22;4965764;28;20549;-82
2022/01/20 07:33:14;;;;;;;26.77;12.73;;;;;;;4.49;78.49;100706.66;4988484;28;20054;-82
2022/01/20 07:35:43;;;;;;;29.90;12.77;;;;;;;4.45;78.46;100719.13;4952208;28;20046;-81
2022/01/20 07:38:10;;;;;;;32.45;12.95;;;;;;;4.43;78.54;100726.22;4951531;28;20066;-82
2022/01/20 07:40:38;;;;;;;34.17;13.75;;;;;;;4.43;78.56;100749.03;4960948;28;20034;-81
2022/01/20 07:43:05;;;;;;;32.67;13.38;;;;;;;4.41;78.61;100759.63;4966766;28;20224;-81
2022/01/20 07:45:46;;;;;;;25.30;12.60;;;;;;;4.40;78.64;100763.19;4962282;28;20525;-81
2022/01/20 07:48:14;;;;;;;30.67;12.60;;;;;;;4.42;78.60;100755.22;4987748;28;20039;-82
2022/01/20 07:50:40;;;;;;;24.00;11.23;;;;;;;4.44;78.88;100763.88;4983676;28;20046;-82
2022/01/20 07:53:08;;;;;;;31.33;12.70;;;;;;;4.39;78.87;100756.22;4944358;28;20138;-82
2022/01/20 07:55:36;;;;;;;28.80;11.43;;;;;;;4.43;78.60;100752.53;4955085;28;20057;-81
2022/01/20 07:58:04;;;;;;;30.85;12.82;;;;;;;4.43;79.03;100760.41;4957342;28;20062;-81
2022/01/20 08:00:39;;;;;;;24.83;10.88;;;;;;;4.44;78.77;100767.38;4957075;28;20050;-81
2022/01/20 08:03:07;;;;;;;30.80;13.10;;;;;;;4.46;79.08;100786.56;4989594;28;20828;-81
2022/01/20 08:05:43;;;;;;;28.98;12.65;;;;;;;4.45;78.93;100771.72;5005872;28;20097;-81
2022/01/20 08:08:11;;;;;;;30.52;11.98;;;;;;;4.43;78.97;100764.81;4960895;28;20110;-82
2022/01/20 08:10:39;;;;;;;28.02;12.27;;;;;;;4.45;78.92;100749.81;4993023;28;20137;-80
2022/01/20 08:13:06;;;;;;;32.13;13.00;;;;;;;4.45;78.58;100768.22;4944510;28;20047;-81
2022/01/20 08:15:33;;;;;;;24.20;10.63;;;;;;;4.43;78.75;100772.72;4964666;28;20061;-80
2022/01/20 08:18:09;;;;;;;23.05;10.50;;;;;;;4.42;78.94;100763.94;4999189;28;20050;-81
2022/01/20 08:20:37;;;;;;;27.48;11.55;;;;;;;4.46;78.79;100777.81;4983542;28;20047;-81
2022/01/20 08:23:09;;;;;;;27.60;12.15;;;;;;;4.45;78.77;100792.75;4999042;28;20074;-80
2022/01/20 08:25:36;;;;;;;26.42;11.65;;;;;;;4.46;79.01;100802.34;4974641;28;20046;-80
2022/01/20 08:28:04;;;;;;;30.80;11.75;;;;;;;4.46;79.03;100818.13;4994892;28;20042;-80
2022/01/20 08:30:39;;;;;;;28.95;11.68;;;;;;;4.47;78.87;100813.69;4957791;28;20042;-79
2022/01/20 08:33:06;;;;;;;25.80;11.63;;;;;;;4.47;78.53;100798.78;5007327;28;20043;-80
2022/01/20 08:35:39;;;;;;;24.03;10.30;;;;;;;4.46;78.67;100799.72;4952837;28;20046;-81
2022/01/20 08:38:17;;;;;;;30.42;11.75;;;;;;;4.48;78.76;100797.00;4973092;28;20526;-80
2022/01/20 08:40:44;;;;;;;24.95;9.95;;;;;;;4.48;78.73;100802.28;4990850;28;20100;-80
2022/01/20 08:43:11;;;;;;;25.60;10.50;;;;;;;4.47;78.73;100798.78;5015623;28;20418;-81
2022/01/20 08:45:43;;;;;;;28.17;10.32;;;;;;;4.46;78.83;100794.44;4950897;28;20066;-81
2022/01/20 08:48:13;;;;;;;26.95;10.80;;;;;;;4.48;78.53;100797.88;4972142;28;20061;-80
2022/01/20 08:50:55;;;;;;;33.90;11.38;;;;;;;4.48;78.53;100803.13;5000355;28;20182;-79
2022/01/20 08:53:22;;;;;;;32.90;11.65;;;;;;;4.51;78.71;100802.13;5022252;28;20128;-81
2022/01/20 08:55:49;;;;;;;24.63;10.18;;;;;;;4.48;78.70;100803.13;4974964;28;20054;-81
2022/01/20 08:58:18;;;;;;;24.30;10.15;;;;;;;4.49;78.71;100806.59;4973956;28;20042;-80
2022/01/20 09:00:45;;;;;;;26.23;10.57;;;;;;;4.52;78.73;100811.72;4952274;28;20393;-80
2022/01/20 09:03:12;;;;;;;30.77;10.98;;;;;;;4.51;78.74;100813.50;4959559;28;20062;-81
2022/01/20 09:05:39;;;;;;;28.08;10.98;;;;;;;4.54;78.79;100809.84;4948065;28;20124;-80
2022/01/20 09:08:12;;;;;;;37.78;11.27;;;;;;;4.52;78.93;100817.81;4976695;28;20070;-81
2022/01/20 09:10:51;;;;;;;30.10;10.68;;;;;;;4.51;78.77;100802.97;4974858;28;20069;-81
2022/01/20 09:16:11;;;;;;;31.52;11.13;;;;;;;4.54;78.75;100810.72;4950997;28;20066;-81
2022/01/20 09:19:00;;;;;;;26.52;9.40;;;;;;;4.53;78.90;100813.44;4979056;28;20050;-81
2022/01/20 09:21:33;;;;;;;26.67;10.05;;;;;;;4.53;78.87;100805.53;4977017;28;20498;-81
2022/01/20 09:23:59;;;;;;;21.63;9.20;;;;;;;4.54;79.16;100792.28;5006261;28;20078;-81
2022/01/20 09:26:26;;;;;;;24.40;8.63;;;;;;;4.57;78.89;100783.41;4971315;28;20512;-81
2022/01/20 09:28:56;;;;;;;25.45;9.65;;;;;;;4.65;78.95;100777.78;4983134;28;20046;-81
2022/01/20 09:31:27;;;;;;;21.67;9.05;;;;;;;4.62;79.04;100770.88;5006654;28;20142;-81
2022/01/20 09:33:55;;;;;;;27.35;9.45;;;;;;;4.60;78.93;100785.88;4998996;28;20054;-81
2022/01/20 09:36:24;;;;;;;33.50;10.50;;;;;;;4.62;79.06;100791.09;5005148;28;20051;-81
2022/01/20 09:38:52;;;;;;;20.83;8.45;;;;;;;4.62;78.78;100786.66;5023568;28;20054;-79
2022/01/20 09:41:35;;;;;;;18.75;7.95;;;;;;;4.61;78.98;100784.97;5008119;28;20118;-80
2022/01/20 09:44:07;;;;;;;25.73;7.75;;;;;;;4.61;79.10;100792.03;4960109;28;20125;-81
2022/01/20 09:46:35;;;;;;;25.30;7.85;;;;;;;4.62;78.94;100791.94;4968005;28;20051;-80
2022/01/20 09:49:12;;;;;;;20.60;8.63;;;;;;;4.65;78.88;100793.56;4975389;28;20062;-80
2022/01/20 09:51:41;;;;;;;27.67;8.02;;;;;;;4.64;78.99;100802.38;4949763;28;20065;-80
2022/01/20 09:54:18;;;;;;;30.30;9.95;;;;;;;4.67;78.79;100795.19;4971202;28;20061;-80
2022/01/20 09:57:06;;;;;;;21.35;8.02;;;;;;;4.67;78.91;100810.13;4954068;28;20039;-80
2022/01/20 09:59:33;;;;;;;27.88;7.57;;;;;;;4.63;78.77;100822.59;4993875;28;20064;-81
2022/01/20 10:02:07;;;;;;;21.35;7.50;;;;;;;4.59;78.57;100823.66;4941834;28;20051;-81
2022/01/20 10:04:35;;;;;;;17.42;7.32;;;;;;;4.60;79.12;100833.22;4951289;28;20053;-81
2022/01/20 10:07:12;;;;;;;19.58;7.13;;;;;;;4.62;78.39;100848.94;4958166;28;20514;-81
2022/01/20 10:09:45;;;;;;;24.83;7.88;;;;;;;4.59;78.65;100857.84;4989933;28;20046;-80
2022/01/20 10:12:28;;;;;;;15.47;6.87;;;;;;;4.57;78.93;100846.53;4978389;28;20047;-79
2022/01/20 10:15:08;;;;;;;25.75;8.55;;;;;;;4.62;78.87;100843.69;4992965;28;20170;-80
2022/01/20 10:17:49;;;;;;;21.90;6.18;;;;;;;4.57;78.83;100843.91;5016348;28;20050;-80
2022/01/20 10:20:21;;;;;;;21.85;7.40;;;;;;;4.64;78.89;100841.84;5012043;28;20114;-80
2022/01/20 10:22:56;;;;;;;18.75;6.53;;;;;;;4.62;79.06;100841.91;4974064;28;20097;-81
2022/01/20 10:25:42;;;;;;;21.17;7.15;;;;;;;4.63;78.92;100832.22;4948666;28;20042;-82
2022/01/20 10:28:19;;;;;;;20.67;5.75;;;;;;;4.63;79.10;100833.09;4996239;28;20422;-82
2022/01/20 10:30:49;;;;;;;19.42;6.05;;;;;;;4.67;79.18;100834.66;4971324;28;20058;-80
2022/01/20 10:33:16;;;;;;;20.80;6.93;;;;;;;4.73;79.21;100844.03;4972013;28;20494;-81
2022/01/20 10:35:45;;;;;;;26.90;7.18;;;;;;;4.75;79.24;100844.81;4978074;28;20053;-81
2022/01/20 10:38:32;;;;;;;26.00;7.10;;;;;;;4.85;78.68;100845.22;4964940;28;20418;-80
2022/01/20 10:41:04;;;;;;;19.67;5.97;;;;;;;4.71;78.98;100853.78;4974018;28;20055;-83
2022/01/20 10:43:35;;;;;;;18.15;6.13;;;;;;;4.67;78.87;100870.63;4958042;28;20517;-82
2022/01/20 10:50:36;;;;;;;17.38;6.75;;;;;;;4.47;79.04;100877.66;4939710;28;20053;-81
2022/01/20 10:53:19;;;;;;;30.20;8.40;;;;;;;4.44;79.12;100869.94;4969139;28;20495;-82
2022/01/20 10:55:47;;;;;;;23.75;6.40;;;;;;;4.52;79.06;100861.69;4957288;28;20046;-82
2022/01/20 10:58:23;;;;;;;15.18;4.30;;;;;;;4.49;78.38;100849.53;4978696;28;20097;-81
2022/01/20 11:00:55;;;;;;;19.00;4.15;;;;;;;4.47;78.29;100840.00;4954052;28;20645;-82
2022/01/20 11:03:27;;;;;;;9.60;1.75;;;;;;;4.47;77.66;100845.25;4986221;28;20552;-83
2022/01/20 11:05:56;;;;;;;6.90;2.00;;;;;;;4.47;76.96;100840.00;4972614;28;20038;-83
2022/01/20 11:08:38;;;;;;;5.78;1.65;;;;;;;4.46;77.75;100844.41;4983698;28;20069;-81
2022/01/20 11:11:10;;;;;;;6.82;1.98;;;;;;;4.45;76.87;100836.59;4993949;28;20046;-82
2022/01/20 11:14:04;;;;;;;3.22;1.42;;;;;;;4.48;77.36;100837.31;4906193;28;20061;-82
2022/01/20 11:17:25;;;;;;;8.65;2.10;;;;;;;4.45;77.50;100836.59;4961349;28;20098;-82
2022/01/20 11:24:36;;;;;;;9.77;2.42;;;;;;;4.60;78.28;100827.97;4979493;28;20049;-81
2022/01/20 11:27:37;;;;;;;7.78;2.22;;;;;;;4.60;77.92;100825.34;4958143;28;20497;-82
2022/01/20 11:30:16;;;;;;;9.25;2.25;;;;;;;4.64;77.45;100826.06;4965138;28;20046;-81
2022/01/20 11:33:07;;;;;;;10.05;2.42;;;;;;;4.62;77.23;100815.59;4966987;28;20050;-81
2022/01/20 11:36:04;;;;;;;8.35;2.00;;;;;;;4.62;77.51;100814.75;4994163;28;20062;-81
2022/01/20 11:38:48;;;;;;;13.18;2.20;;;;;;;4.56;75.81;100821.16;4887272;28;20050;-82
2022/01/20 11:41:17;;;;;;;6.57;1.95;;;;;;;4.68;76.86;100827.59;4945099;28;20042;-81
2022/01/20 11:43:46;;;;;;;14.20;2.00;;;;;;;4.70;77.00;100823.97;4966448;28;20050;-81
2022/01/20 11:46:16;;;;;;;10.50;2.17;;;;;;;4.70;76.87;100831.00;4971290;28;20054;-81
2022/01/20 11:49:05;;;;;;;10.02;2.72;;;;;;;4.61;75.77;100828.84;4945096;28;22822;-81
2022/01/20 11:51:57;;;;;;;13.80;2.55;;;;;;;4.66;75.45;100822.44;4935739;28;20049;-81
2022/01/20 11:54:29;;;;;;;10.38;1.90;;;;;;;4.65;76.19;100825.97;4970464;28;20046;-81
2022/01/20 11:57:13;;;;;;;5.18;1.67;;;;;;;4.62;76.24;100820.00;4976315;28;20043;-81
2022/01/20 11:59:46;;;;;;;14.02;2.38;;;;;;;4.67;76.13;100825.91;4969166;28;20054;-81
2022/01/20 12:02:38;;;;;;;10.43;1.88;;;;;;;4.65;76.21;100830.38;4973542;28;20049;-81
2022/01/20 12:05:30;;;;;;;13.98;3.10;;;;;;;4.73;76.36;100805.44;4906827;28;20114;-81
2022/01/20 12:08:32;;;;;;;12.10;3.20;;;;;;;4.76;76.79;100814.94;4919019;28;20299;-81
2022/01/20 12:11:09;;;;;;;9.45;2.40;;;;;;;4.74;76.58;100811.53;4983934;28;20491;-81
2022/01/20 12:13:50;;;;;;;13.73;2.67;;;;;;;4.75;74.59;100815.84;4948324;28;20142;-80
2022/01/20 12:16:21;;;;;;;7.18;1.88;;;;;;;4.78;75.10;100828.84;4953922;28;20061;-80
2022/01/20 12:18:58;;;;;;;9.73;2.70;;;;;;;4.73;75.51;100828.22;4929980;28;20042;-80
2022/01/20 12:21:26;;;;;;;12.30;2.92;;;;;;;4.83;75.98;100826.00;4954482;28;20046;-81
2022/01/20 12:23:54;;;;;;;15.15;2.35;;;;;;;4.86;76.10;100834.63;4918641;28;20442;-81
2022/01/20 12:26:21;;;;;;;13.48;2.15;;;;;;;4.83;75.69;100834.75;4948288;28;20039;-81
2022/01/20 12:29:02;;;;;;;8.98;2.20;;;;;;;4.79;75.50;100835.84;4947676;28;20050;-81
2022/01/20 12:31:29;;;;;;;17.75;2.67;;;;;;;4.86;75.29;100841.66;4937025;28;20043;-80
2022/01/20 12:33:56;;;;;;;15.88;3.05;;;;;;;4.92;74.82;100833.47;4953496;28;20718;-81
2022/01/20 12:36:23;;;;;;;14.38;2.88;;;;;;;4.87;73.70;100835.47;4935135;28;20053;-82
2022/01/20 12:38:51;;;;;;;12.35;2.50;;;;;;;4.85;74.42;100829.44;4954347;28;20050;-81
2022/01/20 12:41:23;;;;;;;7.93;2.22;;;;;;;4.86;74.19;100820.59;4940041;28;20058;-83
2022/01/20 12:43:56;;;;;;;9.88;2.47;;;;;;;4.83;74.85;100834.75;4985835;28;20051;-81
2022/01/20 12:46:36;;;;;;;;;;;;;;;4.66;73.56;100835.59;4983556;28;20084;-81
2022/01/20 12:49:14;;;;;;;22.33;3.95;;;;;;;4.71;73.60;100830.09;4999962;28;19929;-81
2022/01/20 12:51:46;;;;;;;11.55;2.33;;;;;;;4.75;73.84;100829.00;4972225;28;21553;-80
2022/01/20 12:54:34;;;;;;;9.00;2.63;;;;;;;4.70;73.70;100841.53;5002949;28;20087;-80
2022/01/20 12:57:07;;;;;;;13.02;2.83;;;;;;;4.75;74.06;100837.75;4965348;28;20112;-81
2022/01/20 12:59:40;;;;;;;15.73;2.67;;;;;;;4.76;73.73;100844.75;4971911;28;20066;-81
2022/01/20 13:02:20;;;;;;;15.90;3.23;;;;;;;4.73;73.15;100844.03;4959606;28;20427;-81
2022/01/20 13:04:47;;;;;;;10.60;2.42;;;;;;;4.72;72.87;100848.44;4977981;28;20045;-81
2022/01/20 13:07:17;;;;;;;13.57;3.35;;;;;;;4.72;73.78;100851.06;4988198;28;20386;-81
2022/01/20 13:09:47;;;;;;;9.73;2.85;;;;;;;4.76;73.37;100843.91;4974381;28;20058;-82
2022/01/20 13:12:17;;;;;;;11.85;2.58;;;;;;;4.73;72.98;100850.16;4991004;28;20054;-80
2022/01/20 13:14:50;;;;;;;12.20;2.35;;;;;;;4.73;72.95;100844.03;4952355;28;22326;-81
2022/01/20 13:17:23;;;;;;;;;;;;;;;4.60;72.73;100835.84;5010742;28;20153;-82
2022/01/20 13:19:54;;;;;;;7.50;2.47;;;;;;;4.74;73.63;100840.47;5006574;28;20364;-82